Dunfermline, United Kingdom

11:06 PM BST on August 03, 2015 (GMT +0100)
Urquhart Crossford | | Change Station
CLOSE
Current Station
Personal Weather Station
Location: Dunfermline, FIFE
Elevation: 200 ft
Nearby Weather Stations

Elev 200 ft 56.07 °N, 3.48 °W | Updated 4 seconds ago

Clear
Clear
56.1 °F
Feels Like 56.1 °F
N
13.0
Wind Variable Wind from South
Gusts 24.0 mph

Today
High -- | Low -- °F
--% Chance of Precip.
Yesterday
High -- | Low -- °F
Precip. -- in
5:20 AM 9:18 PM
Waning Gibbous, 83% visible
Pressure 29.62 in
Visibility -9999.0 miles
Clouds
Dew Point 47 °F
Humidity 72%
Rainfall 0.02 in
Snow Depth Not available.
UV Not available.
Pollen Not available.
Air Quality Not available.
Flu Activity Not available.
METAR EGPH 032150Z 20011KT CAVOK 14/08 Q1003

More Conditions Fewer Conditions

Pressure 29.62 in
Visibility -9999.0 miles
Clouds
Dew Point 47 °F
Humidity 72%
Rainfall 0.02 in
Snow Depth Not available.
UV Not available.
Pollen Not available.
Air Quality Not available.
Flu Activity Not available.
METAR EGPH 032150Z 20011KT CAVOK 14/08 Q1003

More Conditions Fewer Conditions

10-Day Weather Forecast

×

Almanac

Astronomy

Aug. 03, 2015 Rise Set
Actual Time
Civil Twilight
Nautical Twilight
Astronomical Twilight
Moon
Length of Visible Light
Length of Day
Tomorrow will be .
, % of the Moon is Illuminated

Today's Extremes

Country Highs Country Lows

Community

WunderPhotos

Upload Photos

1,843,781 photos uploaded!

WunderBlogs® & News

Nearby

Air Quality

  Air Quality AQ Index Pollutant
Not available.

Snow Depth

Station Depth Elevation

Earthquake Activity

City Distance Mag. Time & Date
Minimum magnitude displayed is 2.5.

Coastal Water Temperatures

Place Temperature

Stations

Nearby Weather Stations

Station Location Temp. Windchill Dew Point Humidity Wind Precip. Elev Updated Type